TimeEST,TemperatureF,Dew PointF,Humidity,Sea Level PressureIn,VisibilityMPH,Wind Direction,Wind SpeedMPH,Gust SpeedMPH,PrecipitationIn,Events,Conditions,WindDirDegrees,DateUTC
12:10 AM,55.4,55.4,100,30.08,2.5,Calm,Calm,-,N/A,,Overcast,0,2012-12-09 05:10:00
12:53 AM,55.9,54.0,93,30.06,2.5,Calm,Calm,-,N/A,,Overcast,0,2012-12-09 05:53:00
1:04 AM,55.4,53.6,94,30.08,2.0,ENE,3.5,-,N/A,,Scattered Clouds,60,2012-12-09 06:04:00
1:21 AM,53.6,53.6,100,30.08,1.5,Calm,Calm,-,N/A,,Partly Cloudy,0,2012-12-09 06:21:00
1:26 AM,53.6,53.6,100,30.08,1.0,North,3.5,-,N/A,,Scattered Clouds,360,2012-12-09 06:26:00
1:33 AM,53.6,53.6,100,30.08,0.8,North,3.5,-,N/A,,Mist,360,2012-12-09 06:33:00
1:53 AM,54.0,53.1,97,30.06,0.2,Calm,Calm,-,N/A,Fog,Fog,0,2012-12-09 06:53:00
2:18 AM,53.6,53.6,100,30.07,0.2,Calm,Calm,-,N/A,Fog,Fog,0,2012-12-09 07:18:00
2:31 AM,53.6,53.6,100,30.07,1.2,Calm,Calm,-,0.01,,Mostly Cloudy,0,2012-12-09 07:31:00
2:34 AM,53.6,53.6,100,30.07,2.5,Calm,Calm,-,0.01,,Mostly Cloudy,0,2012-12-09 07:34:00
2:43 AM,53.6,53.6,100,30.07,4.0,ESE,3.5,-,0.01,,Mostly Cloudy,110,2012-12-09 07:43:00
2:53 AM,54.0,54.0,100,30.05,4.0,Calm,Calm,-,0.01,,Mostly Cloudy,0,2012-12-09 07:53:00
3:09 AM,53.6,51.8,94,30.07,2.0,Calm,Calm,-,N/A,,Mostly Cloudy,0,2012-12-09 08:09:00
3:12 AM,53.6,51.8,94,30.07,1.5,North,3.5,-,N/A,,Mostly Cloudy,360,2012-12-09 08:12:00
3:43 AM,53.6,51.8,94,30.07,0.8,Calm,Calm,-,N/A,,Mostly Cloudy,0,2012-12-09 08:43:00
3:53 AM,53.1,52.0,96,30.06,1.2,Calm,Calm,-,N/A,,Mostly Cloudy,0,2012-12-09 08:53:00
3:59 AM,53.6,51.8,94,30.07,2.0,Calm,Calm,-,N/A,,Mostly Cloudy,0,2012-12-09 08:59:00
4:18 AM,53.6,53.6,100,30.07,2.5,ENE,3.5,-,N/A,,Mostly Cloudy,60,2012-12-09 09:18:00
4:25 AM,53.6,51.8,94,30.07,3.0,Calm,Calm,-,N/A,,Mostly Cloudy,0,2012-12-09 09:25:00
4:37 AM,53.6,51.8,94,30.06,2.0,Calm,Calm,-,N/A,,Mostly Cloudy,0,2012-12-09 09:37:00
4:42 AM,53.6,51.8,94,30.06,1.5,Calm,Calm,-,N/A,,Scattered Clouds,0,2012-12-09 09:42:00
4:46 AM,51.8,51.8,100,30.06,0.8,Calm,Calm,-,N/A,,Scattered Clouds,0,2012-12-09 09:46:00
4:53 AM,53.1,52.0,96,30.05,0.8,Calm,Calm,-,N/A,,Partly Cloudy,0,2012-12-09 09:53:00
4:57 AM,53.6,51.8,94,30.06,1.2,Calm,Calm,-,N/A,,Partly Cloudy,0,2012-12-09 09:57:00
5:04 AM,53.6,51.8,94,30.07,2.0,Calm,Calm,-,N/A,,Partly Cloudy,0,2012-12-09 10:04:00
5:08 AM,51.8,51.8,100,30.07,1.5,Calm,Calm,-,N/A,,Clear,0,2012-12-09 10:08:00
5:16 AM,53.6,51.8,94,30.07,1.0,Calm,Calm,-,N/A,,Clear,0,2012-12-09 10:16:00
5:20 AM,51.8,51.8,100,30.07,1.8,Calm,Calm,-,N/A,,Partly Cloudy,0,2012-12-09 10:20:00
5:29 AM,53.6,51.8,94,30.08,2.0,Calm,Calm,-,N/A,,Mostly Cloudy,0,2012-12-09 10:29:00
5:33 AM,53.6,51.8,94,30.08,1.5,Calm,Calm,-,N/A,,Mostly Cloudy,0,2012-12-09 10:33:00
5:47 AM,53.6,51.8,94,30.08,2.0,Calm,Calm,-,N/A,,Overcast,0,2012-12-09 10:47:00
5:53 AM,54.0,53.1,97,30.07,2.5,East,3.5,-,N/A,,Overcast,90,2012-12-09 10:53:00
6:02 AM,55.4,53.6,94,30.08,3.0,East,3.5,-,N/A,,Overcast,80,2012-12-09 11:02:00
6:11 AM,55.4,53.6,94,30.08,5.0,ENE,6.9,-,N/A,,Overcast,70,2012-12-09 11:11:00
6:31 AM,55.4,53.6,94,30.09,4.0,ESE,4.6,-,N/A,,Overcast,110,2012-12-09 11:31:00
6:53 AM,55.0,54.0,96,30.09,4.0,ESE,3.5,-,N/A,,Overcast,110,2012-12-09 11:53:00
7:15 AM,55.4,53.6,94,30.10,3.0,East,3.5,-,N/A,,Overcast,100,2012-12-09 12:15:00
7:53 AM,55.9,54.0,93,30.09,3.0,Calm,Calm,-,N/A,,Overcast,0,2012-12-09 12:53:00
8:49 AM,55.4,53.6,94,30.12,2.0,ESE,3.5,-,N/A,,Overcast,120,2012-12-09 13:49:00
8:53 AM,55.9,54.0,93,30.10,2.0,Calm,Calm,-,N/A,,Overcast,0,2012-12-09 13:53:00
9:06 AM,55.4,55.4,100,30.12,2.5,Calm,Calm,-,N/A,,Overcast,0,2012-12-09 14:06:00
9:15 AM,55.4,55.4,100,30.12,2.5,ESE,3.5,-,N/A,,Overcast,110,2012-12-09 14:15:00
9:53 AM,55.9,55.0,97,30.11,2.5,Calm,Calm,-,N/A,,Overcast,0,2012-12-09 14:53:00
10:04 AM,57.2,55.4,94,30.13,2.0,SE,3.5,-,N/A,,Overcast,140,2012-12-09 15:04:00
10:12 AM,57.2,55.4,94,30.13,1.5,Calm,Calm,-,N/A,,Overcast,0,2012-12-09 15:12:00
10:17 AM,57.2,55.4,94,30.13,0.8,Calm,Calm,-,N/A,,Overcast,0,2012-12-09 15:17:00
10:24 AM,57.2,55.4,94,30.13,0.8,Calm,Calm,-,N/A,,Overcast,0,2012-12-09 15:24:00
10:35 AM,57.2,57.2,100,30.13,1.2,Calm,Calm,-,N/A,,Overcast,0,2012-12-09 15:35:00
10:53 AM,57.9,55.9,93,30.11,1.8,South,3.5,-,N/A,,Overcast,170,2012-12-09 15:53:00
11:13 AM,57.2,57.2,100,30.12,1.2,SE,3.5,-,N/A,,Overcast,140,2012-12-09 16:13:00
11:29 AM,59.0,57.2,94,30.11,2.0,Calm,Calm,-,N/A,,Overcast,0,2012-12-09 16:29:00
11:34 AM,59.0,57.2,94,30.11,3.0,Calm,Calm,-,N/A,,Overcast,0,2012-12-09 16:34:00
11:53 AM,60.1,57.0,90,30.09,5.0,WSW,5.8,-,N/A,,Overcast,240,2012-12-09 16:53:00
12:08 PM,60.8,57.2,88,30.10,7.0,South,4.6,-,N/A,,Overcast,180,2012-12-09 17:08:00
12:22 PM,62.6,57.2,82,30.09,9.0,SSW,3.5,-,N/A,,Mostly Cloudy,210,2012-12-09 17:22:00
12:32 PM,62.6,57.2,82,30.09,9.0,SSW,3.5,-,N/A,,Mostly Cloudy,200,2012-12-09 17:32:00
12:53 PM,63.0,57.0,81,30.06,10.0,South,4.6,-,N/A,,Mostly Cloudy,180,2012-12-09 17:53:00
1:20 PM,64.4,57.2,77,30.07,10.0,South,4.6,-,N/A,,Overcast,190,2012-12-09 18:20:00
1:28 PM,64.4,57.2,77,30.06,10.0,South,5.8,-,N/A,,Mostly Cloudy,190,2012-12-09 18:28:00
1:53 PM,64.9,57.0,75,30.04,10.0,South,4.6,-,N/A,,Overcast,170,2012-12-09 18:53:00
2:19 PM,66.2,55.4,68,30.05,10.0,SW,3.5,-,N/A,,Overcast,230,2012-12-09 19:19:00
2:35 PM,66.2,55.4,68,30.04,10.0,WSW,5.8,-,N/A,,Mostly Cloudy,250,2012-12-09 19:35:00
2:53 PM,66.9,55.0,66,30.02,10.0,Calm,Calm,-,N/A,,Mostly Cloudy,0,2012-12-09 19:53:00
3:53 PM,66.0,55.0,68,30.03,10.0,SW,3.5,-,N/A,,Overcast,230,2012-12-09 20:53:00
4:11 PM,66.2,53.6,64,30.05,10.0,SSW,4.6,-,N/A,,Overcast,200,2012-12-09 21:11:00
4:53 PM,66.0,54.0,65,30.03,10.0,Calm,Calm,-,N/A,,Overcast,0,2012-12-09 21:53:00
5:53 PM,64.9,54.0,68,30.03,10.0,Calm,Calm,-,N/A,,Overcast,0,2012-12-09 22:53:00
6:53 PM,64.0,55.0,73,30.02,10.0,Calm,Calm,-,N/A,,Overcast,0,2012-12-09 23:53:00
7:53 PM,62.1,55.0,78,30.01,10.0,SE,3.5,-,N/A,,Mostly Cloudy,130,2012-12-10 00:53:00
8:53 PM,61.0,54.0,78,30.01,10.0,SSE,3.5,-,N/A,,Partly Cloudy,150,2012-12-10 01:53:00
9:53 PM,60.1,55.0,83,30.01,10.0,South,4.6,-,N/A,,Clear,170,2012-12-10 02:53:00
10:53 PM,57.9,55.0,90,30.00,10.0,SSE,3.5,-,N/A,,Clear,160,2012-12-10 03:53:00
11:53 PM,57.0,55.0,93,29.98,9.0,SE,3.5,-,N/A,,Clear,140,2012-12-10 04:53:00